logo
Search for airport 
image banner adimage banner adimage banner ad
image banner ad

SWHV - Construtora G. E. F.

Located in Fortaleza, Brazil

ICAO - SWHV, IATA -

Data provided by Airmate  

General information

Coordinates: S3°49'16" W38°32'2"
Elevation is 108 feet MSL.
Magnetic variation is -21° East
View others Airports in Ceará

Operational data

Special qualification required
Current time UTC:
Current local time:
Weather at : SBFZ - Fortaleza / Pinto Martins ( 5 km )
METAR: SBFZ 140530Z 15010KT 110V170 2000 +RA BKN011 BKN018 FEW030TCU 26/26 Q1009
TAF: TAF SBFZ 140315Z 1406/1506 18005KT 7000 BKN015 FEW030TCU TN26/1409Z TX30/1418Z PROB40 1406/1409 4000 SHRA BECMG 1412/1414 16007KT SCT020 BECMG 1414/1416 12010KT BKN025 FEW030TCU BECMG 1420/1422 08005KT FEW020 TEMPO 1503/1506 18005KT 4000 RA BKN015 FEW030TCU RMK PHN
View NOTAMs / SUP AIP / TFR affecting this airport [VIEW]
Communications frequencies: [VIEW]

Runways:

Airport contact information

Address: Fortaleza Brazil

Satellite view of SWHV